createdAt,value
2022-11-10T00:01:13.180Z,1.95
2022-11-10T00:06:14.680Z,2.22
2022-11-10T00:11:16.239Z,1.98
2022-11-10T00:16:36.208Z,2.08
2022-11-10T00:21:38.026Z,2.03
2022-11-10T00:26:39.523Z,2.40
2022-11-10T00:31:41.151Z,1.90
2022-11-10T00:36:43.008Z,1.92
2022-11-10T00:41:44.410Z,2.28
2022-11-10T00:46:46.037Z,1.92
2022-11-10T00:51:47.539Z,1.77
2022-11-10T00:56:49.063Z,2.17
2022-11-10T01:01:50.442Z,2.00
2022-11-10T01:06:52.883Z,1.90
2022-11-10T01:11:54.418Z,1.90
2022-11-10T01:16:55.895Z,2.55
2022-11-10T01:21:58.115Z,1.75
2022-11-10T01:26:59.561Z,2.00
2022-11-10T01:32:00.956Z,2.00
2022-11-10T01:37:02.534Z,1.67
2022-11-10T01:42:04.098Z,1.95
2022-11-10T01:47:05.602Z,2.30
2022-11-10T01:52:09.095Z,2.20
2022-11-10T01:57:11.645Z,1.92
2022-11-10T02:02:20.744Z,1.38
2022-11-10T02:07:22.632Z,1.42
2022-11-10T02:12:37.155Z,1.77
2022-11-10T02:17:38.763Z,1.83
2022-11-10T02:22:40.535Z,1.70
2022-11-10T02:27:41.962Z,1.95
2022-11-10T02:32:43.376Z,1.63
2022-11-10T02:37:44.763Z,1.77
2022-11-10T02:42:46.211Z,2.03
2022-11-10T02:47:47.716Z,2.10
2022-11-10T02:52:49.119Z,1.70
2022-11-10T02:57:50.572Z,2.13
2022-11-10T03:02:58.710Z,2.05
2022-11-10T03:08:01.665Z,2.13
2022-11-10T03:13:03.106Z,2.05
2022-11-10T03:18:05.142Z,1.98
2022-11-10T03:23:06.727Z,2.05
2022-11-10T03:28:08.182Z,2.28
2022-11-10T03:33:10.367Z,1.88
2022-11-10T03:38:11.833Z,2.20
2022-11-10T03:43:13.262Z,2.00
2022-11-10T03:48:15.647Z,1.80
2022-11-10T03:53:17.110Z,1.92
2022-11-10T03:58:18.555Z,1.83
2022-11-10T04:03:20.444Z,2.10
2022-11-10T04:08:46.873Z,1.63
2022-11-10T04:14:07.035Z,2.28
2022-11-10T04:19:08.463Z,1.58
2022-11-10T04:24:09.911Z,1.98
2022-11-10T04:29:16.993Z,2.30
2022-11-10T04:34:18.462Z,3.83
2022-11-10T04:39:19.846Z,2.72
2022-11-10T04:44:21.288Z,2.83
2022-11-10T04:49:29.427Z,2.50
2022-11-10T04:54:30.928Z,1.98
2022-11-10T04:59:32.368Z,2.67
2022-11-10T05:04:33.758Z,2.25
2022-11-10T05:10:01.369Z,3.00
2022-11-10T05:15:02.795Z,3.53
2022-11-10T05:20:05.226Z,3.25
2022-11-10T05:25:06.796Z,3.95
2022-11-10T05:30:09.807Z,4.38
2022-11-10T05:35:11.207Z,4.78
2022-11-10T05:40:13.012Z,6.10
2022-11-10T05:45:15.241Z,5.35
2022-11-10T05:50:25.705Z,5.30
2022-11-10T05:55:28.281Z,3.05
2022-11-10T06:00:30.665Z,3.65
2022-11-10T06:05:33.009Z,2.83
2022-11-10T06:10:34.742Z,3.15
2022-11-10T06:15:36.203Z,3.08
2022-11-10T06:20:37.643Z,2.72
2022-11-10T06:25:39.728Z,3.08
2022-11-10T06:30:41.228Z,3.78
2022-11-10T06:35:42.639Z,2.78
2022-11-10T06:40:44.091Z,3.28
2022-11-10T06:45:45.829Z,2.65
2022-11-10T06:50:47.219Z,3.65
2022-11-10T06:55:48.635Z,3.38
2022-11-10T07:00:50.257Z,3.30
2022-11-10T07:05:51.695Z,3.47
2022-11-10T07:10:54.172Z,3.33
2022-11-10T07:15:55.607Z,3.72
2022-11-10T07:20:57.039Z,3.25
2022-11-10T07:25:59.228Z,3.05
2022-11-10T07:31:03.880Z,2.97
2022-11-10T07:36:05.687Z,3.38
2022-11-10T07:41:07.174Z,3.28
2022-11-10T07:46:09.447Z,3.15
2022-11-10T07:51:10.881Z,2.83
2022-11-10T07:56:12.387Z,2.78
2022-11-10T08:01:13.840Z,2.45
2022-11-10T08:06:15.369Z,2.50
2022-11-10T08:11:16.843Z,2.75
2022-11-10T08:16:18.824Z,2.55
2022-11-10T08:21:20.212Z,2.67
2022-11-10T08:26:21.639Z,2.63
2022-11-10T08:31:23.138Z,3.15
2022-11-10T08:36:24.724Z,2.67
2022-11-10T08:41:26.156Z,2.38
2022-11-10T08:46:27.758Z,2.47
2022-11-10T08:51:29.237Z,2.28
2022-11-10T08:56:31.259Z,2.15
2022-11-10T09:01:32.660Z,2.58
2022-11-10T09:06:34.081Z,3.20
2022-11-10T09:11:35.567Z,2.60
2022-11-10T09:16:37.050Z,2.63
2022-11-10T09:21:38.493Z,2.20
2022-11-10T09:26:39.972Z,2.20
2022-11-10T09:31:43.456Z,2.70
2022-11-10T09:36:44.863Z,2.20
2022-11-10T09:41:47.248Z,2.53
2022-11-10T09:46:51.608Z,2.40
2022-11-10T09:51:53.374Z,2.33
2022-11-10T09:56:59.974Z,2.38
2022-11-10T10:02:20.217Z,2.20
2022-11-10T10:07:31.769Z,2.17
2022-11-10T10:12:51.451Z,2.40
2022-11-10T10:17:53.036Z,2.08
2022-11-10T10:23:05.828Z,2.15
2022-11-10T10:28:18.976Z,1.80
2022-11-10T10:33:22.004Z,1.45
2022-11-10T10:38:26.840Z,1.90
2022-11-10T10:43:28.522Z,1.45
2022-11-10T10:48:30.729Z,1.90
2022-11-10T10:53:32.171Z,1.40
2022-11-10T10:58:36.139Z,1.10
2022-11-10T11:03:45.008Z,1.13
2022-11-10T11:09:00.284Z,1.30
2022-11-10T11:14:21.372Z,1.90
2022-11-10T11:19:24.772Z,1.35
2022-11-10T11:24:32.072Z,1.45
2022-11-10T11:29:33.582Z,1.83
2022-11-10T11:34:49.413Z,1.45
2022-11-10T11:39:53.687Z,1.42
2022-11-10T11:45:04.040Z,0.85
2022-11-10T11:55:25.772Z,1.35
2022-11-10T12:00:29.182Z,1.02
2022-11-10T12:05:36.744Z,1.70
2022-11-10T12:10:50.267Z,1.17
2022-11-10T12:15:51.670Z,1.45
2022-11-10T12:21:05.025Z,1.38
2022-11-10T12:26:24.827Z,1.08
2022-11-10T12:31:28.587Z,1.20
2022-11-10T12:36:30.696Z,1.27
2022-11-10T12:41:37.282Z,1.40
2022-11-10T12:46:39.375Z,1.02
2022-11-10T12:51:59.364Z,1.02
2022-11-10T12:57:10.634Z,1.67
2022-11-10T13:02:30.708Z,1.15
2022-11-10T13:07:32.255Z,1.45
2022-11-10T13:12:33.671Z,0.88
2022-11-10T13:17:37.876Z,1.10
2022-11-10T13:22:40.943Z,1.40
2022-11-10T13:27:42.391Z,1.30
2022-11-10T13:32:43.824Z,1.02
2022-11-10T13:37:46.982Z,1.35
2022-11-10T13:42:57.523Z,1.30
2022-11-10T13:48:01.776Z,0.77
2022-11-10T13:53:21.276Z,1.67
2022-11-10T13:58:27.724Z,1.38
2022-11-10T14:03:51.471Z,1.05
2022-11-10T14:08:52.989Z,1.15
2022-11-10T14:14:00.539Z,1.20
2022-11-10T14:19:04.452Z,1.08
2022-11-10T14:24:25.944Z,1.30
2022-11-10T14:29:30.183Z,1.17
2022-11-10T14:34:32.711Z,1.20
2022-11-10T14:39:34.550Z,1.30
2022-11-10T14:44:36.426Z,1.38
2022-11-10T14:49:37.943Z,1.58
2022-11-10T14:54:43.647Z,1.85
2022-11-10T14:59:45.274Z,1.40
2022-11-10T15:04:50.094Z,1.58
2022-11-10T15:10:13.486Z,1.20
2022-11-10T15:15:18.405Z,1.30
2022-11-10T15:20:26.823Z,1.15
2022-11-10T15:25:33.589Z,1.02
2022-11-10T15:30:35.095Z,1.20
2022-11-10T15:35:36.640Z,1.30
2022-11-10T15:40:45.314Z,1.42
2022-11-10T15:45:52.996Z,1.55
2022-11-10T15:50:56.248Z,1.48
2022-11-10T15:55:57.711Z,1.42
2022-11-10T16:01:00.207Z,1.30
2022-11-10T16:06:01.633Z,1.58
2022-11-10T16:11:03.146Z,1.30
2022-11-10T16:16:04.672Z,1.52
2022-11-10T16:21:06.214Z,1.55
2022-11-10T16:26:09.544Z,1.50
2022-11-10T16:31:11.660Z,1.50
2022-11-10T16:36:24.131Z,1.30
2022-11-10T16:41:26.768Z,1.20
2022-11-10T16:46:31.435Z,1.20
2022-11-10T16:51:50.843Z,1.25
2022-11-10T16:56:52.320Z,1.63
2022-11-10T17:01:54.358Z,1.55
2022-11-10T17:06:55.833Z,1.35
2022-11-10T17:11:57.264Z,1.27
2022-11-10T17:16:58.697Z,1.20
2022-11-10T17:22:00.312Z,1.27
2022-11-10T17:27:01.726Z,1.40
2022-11-10T17:32:03.207Z,1.75
2022-11-10T17:37:05.279Z,1.42
2022-11-10T17:42:10.651Z,1.63
2022-11-10T17:47:12.268Z,1.40
2022-11-10T17:52:17.162Z,1.55
2022-11-10T17:57:18.583Z,1.50
2022-11-10T18:02:19.983Z,2.17
2022-11-10T18:07:21.391Z,2.13
2022-11-10T18:12:27.640Z,1.30
2022-11-10T18:17:29.452Z,1.38
2022-11-10T18:22:31.200Z,2.00
2022-11-10T18:27:32.649Z,1.70
2022-11-10T18:32:34.090Z,1.63
2022-11-10T18:37:39.086Z,1.30
2022-11-10T18:42:44.892Z,1.38
2022-11-10T18:47:49.637Z,1.65
2022-11-10T18:52:52.013Z,1.95
2022-11-10T18:57:53.515Z,2.47
2022-11-10T19:02:56.011Z,1.30
2022-11-10T19:07:57.435Z,1.17
2022-11-10T19:12:58.838Z,2.58
2022-11-10T19:18:00.258Z,0.98
2022-11-10T19:23:01.799Z,2.65
2022-11-10T19:28:04.711Z,1.65
2022-11-10T19:33:06.187Z,1.92
2022-11-10T19:38:07.659Z,1.92
2022-11-10T19:43:09.176Z,2.13
2022-11-10T19:48:10.877Z,1.13
2022-11-10T19:53:12.310Z,1.23
2022-11-10T19:58:14.001Z,1.88
2022-11-10T20:03:15.416Z,1.30
2022-11-10T20:08:17.007Z,1.23
2022-11-10T20:13:18.462Z,1.27
2022-11-10T20:18:19.863Z,1.13
2022-11-10T20:23:21.589Z,1.80
2022-11-10T20:28:23.136Z,1.52
2022-11-10T20:33:24.894Z,1.88
2022-11-10T20:38:26.503Z,1.33
2022-11-10T20:43:28.076Z,1.42
2022-11-10T20:48:32.189Z,1.08
2022-11-10T20:53:33.614Z,1.40
2022-11-10T20:58:35.162Z,1.60
2022-11-10T21:03:36.675Z,1.52
2022-11-10T21:08:38.290Z,0.95
2022-11-10T21:13:39.714Z,1.13
2022-11-10T21:18:41.124Z,1.02
2022-11-10T21:23:42.556Z,0.90
2022-11-10T21:28:44.091Z,1.15
2022-11-10T21:33:45.736Z,1.05
2022-11-10T21:38:47.218Z,0.70
2022-11-10T21:43:49.177Z,1.10
2022-11-10T21:48:51.135Z,1.27
2022-11-10T21:53:52.556Z,1.17
2022-11-10T21:58:54.027Z,1.00
2022-11-10T22:03:55.431Z,1.15
2022-11-10T22:08:56.878Z,1.30
2022-11-10T22:14:16.727Z,1.50
2022-11-10T22:19:18.370Z,0.90
2022-11-10T22:24:28.684Z,0.52
2022-11-10T22:34:33.328Z,1.13
2022-11-10T22:39:53.468Z,2.03
2022-11-10T22:44:55.189Z,1.15
2022-11-10T22:49:56.652Z,1.02
2022-11-10T22:54:58.501Z,0.98
2022-11-10T22:59:59.914Z,0.75
2022-11-10T23:05:01.348Z,1.08
2022-11-10T23:10:02.920Z,1.05
2022-11-10T23:15:04.395Z,1.08
2022-11-10T23:20:06.170Z,0.77
2022-11-10T23:25:07.767Z,0.90
2022-11-10T23:30:09.394Z,0.60
2022-11-10T23:35:10.825Z,0.90
2022-11-10T23:40:12.524Z,1.15
2022-11-10T23:45:14.174Z,0.70
2022-11-10T23:50:15.711Z,0.80
2022-11-10T23:55:17.228Z,0.77
